Time;durP1;ratioP1;P1;durP2;ratioP2;P2;SDS_P1;SDS_P2;PMS_P1;PMS_P2;Temp;Humidity;BMP_temperature;BMP_pressure;BME280_temperature;BME280_humidity;BME280_pressure;Samples;Min_cycle;Max_cycle;Signal;HPM_P1;HPM_P2
2023/03/15 00:01:10;;;;;;;0.00;0.00;;;2.80;79.20;;;;;;5104358;27;20047;-83
2023/03/15 00:03:36;;;;;;;0.00;0.00;;;2.80;79.80;;;;;;5134085;27;20088;-83
2023/03/15 00:06:03;;;;;;;0.00;0.00;;;2.70;76.50;;;;;;5134519;27;20133;-83
2023/03/15 00:08:32;;;;;;;0.00;0.00;;;2.80;80.10;;;;;;5133582;27;20124;-84
2023/03/15 00:10:58;;;;;;;0.22;0.00;;;2.70;76.70;;;;;;5117582;27;20068;-84
2023/03/15 00:13:24;;;;;;;0.20;0.10;;;2.70;80.90;;;;;;5134577;27;20048;-84
2023/03/15 00:15:52;;;;;;;0.00;0.00;;;2.70;80.20;;;;;;5134211;27;20418;-84
2023/03/15 00:18:19;;;;;;;0.00;0.00;;;2.70;87.10;;;;;;5117099;27;20118;-83
2023/03/15 00:20:46;;;;;;;0.20;0.20;;;2.70;91.40;;;;;;5134446;27;20497;-83
2023/03/15 00:23:12;;;;;;;0.00;0.00;;;2.60;91.20;;;;;;5117097;27;20086;-83
2023/03/15 00:25:38;;;;;;;0.00;0.00;;;2.60;91.00;;;;;;5117191;27;20554;-83
2023/03/15 00:28:04;;;;;;;0.00;0.00;;;2.60;90.80;;;;;;5134144;27;20087;-83
2023/03/15 00:30:30;;;;;;;0.00;0.00;;;2.60;91.20;;;;;;5133697;27;20050;-83
2023/03/15 00:32:55;;;;;;;0.00;0.00;;;2.70;91.70;;;;;;5116942;27;20043;-83
2023/03/15 00:35:22;;;;;;;0.00;0.00;;;2.60;91.30;;;;;;5116781;27;20088;-83
2023/03/15 00:37:53;;;;;;;0.00;0.00;;;2.60;92.90;;;;;;5134140;27;20478;-83
2023/03/15 00:40:19;;;;;;;0.22;0.00;;;2.60;92.40;;;;;;5100889;27;20055;-83
2023/03/15 00:42:48;;;;;;;0.98;0.45;;;2.50;93.00;;;;;;5116744;28;20054;-83
2023/03/15 00:45:15;;;;;;;0.00;0.00;;;2.60;93.20;;;;;;5134016;27;20050;-83
2023/03/15 00:47:41;;;;;;;0.85;0.70;;;2.60;94.90;;;;;;5100081;27;20047;-83
2023/03/15 00:50:07;;;;;;;0.00;0.00;;;2.60;92.90;;;;;;5099822;28;20047;-83
2023/03/15 00:52:35;;;;;;;0.00;0.00;;;2.50;92.10;;;;;;5133808;27;20054;-83
2023/03/15 00:55:01;;;;;;;0.00;0.00;;;2.50;94.00;;;;;;5116047;27;20505;-83
2023/03/15 00:57:27;;;;;;;0.00;0.00;;;2.50;94.90;;;;;;5133435;27;20039;-83
2023/03/15 00:59:52;;;;;;;0.00;0.00;;;2.50;94.40;;;;;;5116320;28;20047;-83
2023/03/15 01:02:21;;;;;;;0.00;0.00;;;2.50;93.00;;;;;;5099689;28;20096;-83
2023/03/15 01:04:50;;;;;;;0.52;0.10;;;2.50;90.20;;;;;;5132964;27;20449;-83
2023/03/15 01:07:16;;;;;;;0.28;0.28;;;2.60;91.50;;;;;;5116674;28;20058;-83
2023/03/15 01:09:43;;;;;;;0.00;0.00;;;2.50;91.80;;;;;;5116738;28;20050;-83
2023/03/15 01:12:09;;;;;;;0.00;0.00;;;2.50;93.10;;;;;;5116726;28;20055;-83
2023/03/15 01:14:36;;;;;;;0.00;0.00;;;2.50;93.10;;;;;;5134144;28;20051;-83
2023/03/15 01:17:02;;;;;;;0.00;0.00;;;2.50;92.80;;;;;;5116214;28;20046;-83
2023/03/15 01:19:28;;;;;;;0.00;0.00;;;2.50;93.60;;;;;;5119289;27;20043;-83
2023/03/15 01:21:53;;;;;;;0.00;0.00;;;2.50;94.80;;;;;;5137769;27;20051;-83
2023/03/15 01:24:19;;;;;;;11.68;0.28;;;2.50;95.10;;;;;;5137628;27;20043;-83
2023/03/15 01:26:45;;;;;;;0.00;0.00;;;2.50;93.90;;;;;;5120573;27;20395;-83
2023/03/15 01:29:12;;;;;;;0.20;0.20;;;2.50;94.90;;;;;;5119783;27;20123;-83
2023/03/15 01:31:38;;;;;;;0.10;0.10;;;2.40;93.40;;;;;;5137532;27;20043;-83
2023/03/15 01:34:04;;;;;;;0.00;0.00;;;2.40;92.50;;;;;;5120696;27;20138;-83
2023/03/15 01:36:30;;;;;;;0.00;0.00;;;2.40;95.30;;;;;;5103150;27;20192;-83
2023/03/15 01:38:55;;;;;;;0.00;0.00;;;2.60;94.40;;;;;;5120458;27;20134;-83
2023/03/15 01:41:23;;;;;;;0.00;0.00;;;2.40;94.40;;;;;;5137323;27;20047;-83
2023/03/15 01:43:49;;;;;;;0.00;0.00;;;2.40;95.00;;;;;;5137369;27;20047;-83
2023/03/15 01:46:27;;;;;;;0.00;0.00;;;2.50;92.60;;;;;;5120098;27;20134;-84
2023/03/15 01:49:18;;;;;;;0.00;0.00;;;2.40;94.40;;;;;;5120124;27;20115;-83
2023/03/15 01:51:50;;;;;;;0.00;0.00;;;2.50;96.20;;;;;;5120165;27;20051;-83
2023/03/15 01:54:30;;;;;;;0.00;0.00;;;2.50;97.90;;;;;;5137181;27;20050;-83
2023/03/15 01:57:15;;;;;;;0.00;0.00;;;2.60;98.00;;;;;;5136760;27;20100;-83
2023/03/15 02:00:12;;;;;;;0.00;0.00;;;2.60;98.20;;;;;;5136677;27;20062;-83
2023/03/15 02:02:46;;;;;;;0.00;0.00;;;2.60;98.20;;;;;;5134863;27;20062;-83
2023/03/15 02:05:17;;;;;;;0.00;0.00;;;2.60;97.00;;;;;;5136885;27;20137;-82
2023/03/15 02:07:48;;;;;;;0.00;0.00;;;2.70;97.50;;;;;;5136517;27;20039;-83
2023/03/15 02:10:20;;;;;;;0.00;0.00;;;2.70;97.40;;;;;;5119378;27;20043;-83
2023/03/15 02:12:50;;;;;;;0.00;0.00;;;2.60;96.80;;;;;;5119908;27;20050;-82
2023/03/15 02:15:17;;;;;;;0.00;0.00;;;2.50;96.50;;;;;;5136848;27;20079;-83
2023/03/15 02:17:45;;;;;;;0.00;0.00;;;2.40;96.00;;;;;;5136598;27;20058;-83
2023/03/15 02:20:17;;;;;;;0.00;0.00;;;2.40;95.60;;;;;;5137044;27;20050;-82
2023/03/15 02:22:54;;;;;;;0.10;0.10;;;2.30;94.60;;;;;;5136737;27;20078;-83
2023/03/15 02:25:29;;;;;;;0.00;0.00;;;2.30;94.20;;;;;;5136639;27;20039;-83
2023/03/15 02:27:57;;;;;;;0.00;0.00;;;2.20;93.80;;;;;;5136373;27;20043;-83
2023/03/15 02:30:23;;;;;;;0.10;0.10;;;2.10;93.50;;;;;;5135274;27;20043;-83
2023/03/15 02:32:49;;;;;;;0.00;0.00;;;2.10;93.50;;;;;;5102102;27;20055;-83
2023/03/15 02:35:28;;;;;;;0.10;0.10;;;2.10;93.80;;;;;;5119058;27;20402;-83
2023/03/15 02:37:53;;;;;;;0.00;0.00;;;2.00;94.00;;;;;;5136562;27;20471;-83
2023/03/15 02:40:22;;;;;;;0.00;0.00;;;2.00;93.90;;;;;;5136261;27;20081;-83
2023/03/15 02:42:52;;;;;;;0.00;0.00;;;2.00;93.40;;;;;;5136122;27;20037;-83
2023/03/15 02:45:19;;;;;;;0.00;0.00;;;1.90;93.40;;;;;;5135867;27;20047;-83
2023/03/15 02:47:47;;;;;;;1.48;0.35;;;1.80;93.20;;;;;;5136530;27;20456;-82
2023/03/15 02:50:13;;;;;;;0.00;0.00;;;1.70;93.20;;;;;;5136001;27;20487;-83
2023/03/15 02:52:39;;;;;;;0.00;0.00;;;1.70;93.30;;;;;;5119065;27;20096;-83
2023/03/15 02:55:05;;;;;;;0.00;0.00;;;1.70;93.30;;;;;;5135984;27;20058;-83
2023/03/15 02:57:31;;;;;;;0.20;0.20;;;1.60;94.50;;;;;;5118451;27;20047;-83
2023/03/15 02:59:58;;;;;;;0.00;0.00;;;1.70;95.40;;;;;;5135457;27;20548;-83
2023/03/15 03:02:24;;;;;;;0.00;0.00;;;1.70;95.20;;;;;;5118682;27;20055;-83
2023/03/15 03:04:51;;;;;;;0.00;0.00;;;1.60;95.20;;;;;;5135682;27;20103;-82
2023/03/15 03:07:17;;;;;;;0.00;0.00;;;1.60;94.90;;;;;;5118543;27;20142;-83
2023/03/15 03:09:43;;;;;;;0.00;0.00;;;1.50;94.60;;;;;;5118708;27;20070;-83
2023/03/15 03:12:09;;;;;;;0.00;0.00;;;1.50;94.60;;;;;;5118503;27;20042;-83
2023/03/15 03:14:35;;;;;;;0.00;0.00;;;1.40;94.80;;;;;;5118038;27;20096;-83
2023/03/15 03:17:00;;;;;;;0.00;0.00;;;1.50;94.90;;;;;;5118102;27;20043;-83
2023/03/15 03:19:26;;;;;;;0.00;0.00;;;1.40;94.80;;;;;;5135340;27;20097;-82
2023/03/15 03:21:53;;;;;;;0.00;0.00;;;1.30;94.70;;;;;;5135532;27;20130;-82
2023/03/15 03:24:19;;;;;;;0.00;0.00;;;1.30;94.70;;;;;;5135065;27;20133;-82
2023/03/15 03:26:45;;;;;;;0.00;0.00;;;1.30;94.40;;;;;;5135312;27;20076;-82
2023/03/15 03:29:15;;;;;;;0.00;0.00;;;1.30;95.00;;;;;;5117714;27;20076;-83
2023/03/15 03:31:42;;;;;;;0.00;0.00;;;1.30;94.40;;;;;;5118001;27;20050;-83
2023/03/15 03:34:09;;;;;;;0.00;0.00;;;1.30;94.20;;;;;;5101412;27;20428;-82
2023/03/15 03:36:35;;;;;;;0.00;0.00;;;1.30;94.30;;;;;;5135456;27;20047;-82
2023/03/15 03:39:01;;;;;;;0.00;0.00;;;1.20;94.10;;;;;;5136085;27;20047;-82
2023/03/15 03:41:27;;;;;;;0.00;0.00;;;1.20;94.20;;;;;;5134574;27;20475;-83
2023/03/15 03:43:53;;;;;;;0.00;0.00;;;1.20;94.10;;;;;;5117363;27;20058;-82
2023/03/15 03:46:18;;;;;;;0.00;0.00;;;1.10;94.00;;;;;;5134836;27;20058;-83
2023/03/15 03:48:44;;;;;;;0.00;0.00;;;1.00;94.50;;;;;;5135347;27;20096;-83
2023/03/15 03:51:10;;;;;;;0.00;0.00;;;1.00;94.30;;;;;;5117973;27;20391;-82
2023/03/15 03:53:36;;;;;;;0.00;0.00;;;1.00;94.40;;;;;;5117476;27;20039;-83
2023/03/15 03:56:06;;;;;;;0.00;0.00;;;1.00;94.30;;;;;;5117624;27;20056;-83
2023/03/15 03:58:33;;;;;;;0.45;0.22;;;1.00;93.90;;;;;;5117391;27;20048;-83
2023/03/15 04:00:58;;;;;;;0.00;0.00;;;1.00;93.80;;;;;;5117623;27;20055;-82
2023/03/15 04:03:27;;;;;;;0.45;0.45;;;1.20;94.00;;;;;;5134299;27;20051;-82
2023/03/15 04:05:58;;;;;;;0.00;0.00;;;0.90;94.00;;;;;;5134698;27;20050;-82
2023/03/15 04:08:25;;;;;;;2.65;1.25;;;0.90;93.80;;;;;;5101143;27;20046;-82
2023/03/15 04:10:52;;;;;;;0.00;0.00;;;0.90;94.00;;;;;;5100308;27;20569;-83
2023/03/15 04:13:19;;;;;;;0.00;0.00;;;0.90;93.60;;;;;;5117291;27;20100;-82
2023/03/15 04:15:46;;;;;;;0.00;0.00;;;0.90;93.80;;;;;;5134225;27;20375;-82
2023/03/15 04:18:12;;;;;;;5.68;1.35;;;0.90;93.90;;;;;;5117293;27;20486;-82
2023/03/15 04:20:38;;;;;;;0.00;0.00;;;1.10;93.80;;;;;;5134385;27;20043;-83
2023/03/15 04:23:06;;;;;;;0.00;0.00;;;0.80;93.80;;;;;;5133969;27;20399;-82
2023/03/15 04:25:32;;;;;;;0.00;0.00;;;0.80;94.00;;;;;;5100404;27;20054;-82
2023/03/15 04:27:57;;;;;;;0.00;0.00;;;0.80;94.10;;;;;;5117043;27;20051;-82
2023/03/15 04:30:28;;;;;;;0.00;0.00;;;0.80;93.70;;;;;;5133520;27;20051;-83
2023/03/15 04:32:57;;;;;;;0.00;0.00;;;0.80;93.90;;;;;;5133731;27;20050;-82
2023/03/15 04:35:29;;;;;;;0.00;0.00;;;0.90;93.90;;;;;;5117018;27;20043;-83
2023/03/15 04:37:55;;;;;;;0.05;0.05;;;0.80;93.80;;;;;;5133959;27;20054;-82
2023/03/15 04:40:22;;;;;;;0.00;0.00;;;0.90;94.30;;;;;;5117029;27;20151;-83
2023/03/15 04:42:55;;;;;;;0.00;0.00;;;0.90;94.70;;;;;;5133742;27;20191;-82
2023/03/15 04:45:22;;;;;;;0.00;0.00;;;0.80;95.10;;;;;;5116691;27;20066;-82
2023/03/15 04:47:49;;;;;;;0.00;0.00;;;0.90;95.40;;;;;;5116668;27;20043;-83
2023/03/15 04:50:16;;;;;;;0.00;0.00;;;1.00;95.70;;;;;;5116795;27;20399;-82
2023/03/15 04:52:41;;;;;;;0.00;0.00;;;1.00;94.70;;;;;;5116781;27;20043;-82
2023/03/15 04:55:08;;;;;;;0.00;0.00;;;1.00;95.10;;;;;;5116355;27;20386;-82
2023/03/15 04:57:33;;;;;;;0.00;0.00;;;1.10;94.70;;;;;;5133385;27;20062;-82
2023/03/15 04:59:59;;;;;;;0.00;0.00;;;1.10;94.50;;;;;;5133322;28;20039;-83
2023/03/15 05:02:25;;;;;;;0.00;0.00;;;1.10;93.80;;;;;;5116544;28;20047;-82
2023/03/15 05:04:51;;;;;;;0.00;0.00;;;1.10;93.30;;;;;;5099489;28;20569;-82
2023/03/15 05:07:17;;;;;;;0.00;0.00;;;1.10;92.20;;;;;;5116374;28;20122;-82
2023/03/15 05:09:45;;;;;;;0.00;0.00;;;1.10;93.10;;;;;;5116544;28;20050;-82
2023/03/15 05:12:11;;;;;;;0.00;0.00;;;1.00;92.70;;;;;;5133734;28;20509;-82
2023/03/15 05:14:37;;;;;;;0.00;0.00;;;1.00;92.60;;;;;;5133545;28;20043;-82
2023/03/15 05:17:03;;;;;;;0.00;0.00;;;1.10;92.80;;;;;;5117009;28;20450;-82
2023/03/15 05:19:32;;;;;;;0.00;0.00;;;1.00;92.70;;;;;;5116625;28;20387;-82
2023/03/15 05:21:58;;;;;;;0.00;0.00;;;0.90;92.80;;;;;;5133530;28;20130;-82
2023/03/15 05:24:24;;;;;;;0.00;0.00;;;0.90;92.70;;;;;;5099450;28;20078;-82
2023/03/15 05:26:53;;;;;;;0.00;0.00;;;0.80;92.60;;;;;;5133278;28;20055;-83
2023/03/15 05:29:20;;;;;;;0.00;0.00;;;0.80;92.80;;;;;;5083226;28;20051;-82
2023/03/15 05:31:46;;;;;;;0.00;0.00;;;0.80;92.60;;;;;;5116312;28;20407;-82
2023/03/15 05:34:12;;;;;;;0.00;0.00;;;0.70;92.30;;;;;;5133478;28;20047;-83
2023/03/15 05:36:38;;;;;;;0.00;0.00;;;0.60;92.40;;;;;;5099071;28;20035;-83
2023/03/15 05:39:04;;;;;;;0.00;0.00;;;0.60;93.20;;;;;;5134290;28;20428;-82
2023/03/15 05:41:30;;;;;;;0.00;0.00;;;0.60;93.30;;;;;;5116145;28;20046;-83
2023/03/15 05:43:56;;;;;;;0.00;0.00;;;0.70;94.30;;;;;;5133229;28;20453;-82
2023/03/15 05:46:22;;;;;;;0.00;0.00;;;0.70;94.40;;;;;;5116105;28;20078;-83
2023/03/15 05:48:48;;;;;;;0.00;0.00;;;0.60;94.20;;;;;;5116009;28;20364;-82
2023/03/15 05:51:14;;;;;;;0.00;0.00;;;0.60;94.40;;;;;;5116244;28;20474;-83
2023/03/15 05:53:40;;;;;;;0.00;0.00;;;1.00;94.10;;;;;;5133371;28;20045;-82
2023/03/15 05:56:07;;;;;;;0.00;0.00;;;0.70;93.90;;;;;;5132643;28;20047;-83
2023/03/15 05:58:32;;;;;;;1.42;0.43;;;0.70;94.30;;;;;;5098800;28;20043;-84
2023/03/15 06:01:00;;;;;;;0.00;0.00;;;0.80;94.60;;;;;;5133078;28;20054;-82
2023/03/15 06:03:26;;;;;;;0.00;0.00;;;0.70;94.70;;;;;;5132843;28;20051;-83
2023/03/15 06:05:52;;;;;;;0.00;0.00;;;0.80;94.80;;;;;;5117548;27;20043;-83
2023/03/15 06:08:18;;;;;;;0.00;0.00;;;0.80;95.40;;;;;;5137529;27;20073;-83
2023/03/15 06:10:44;;;;;;;0.00;0.00;;;0.90;96.10;;;;;;5120412;27;20467;-81
2023/03/15 06:13:10;;;;;;;0.50;0.20;;;1.00;96.60;;;;;;5102531;27;20046;-79
2023/03/15 06:15:35;;;;;;;0.00;0.00;;;1.10;95.50;;;;;;5120248;27;20043;-82
2023/03/15 06:18:01;;;;;;;0.00;0.00;;;1.10;95.20;;;;;;5136415;27;20036;-82
2023/03/15 06:20:27;;;;;;;0.00;0.00;;;1.10;95.30;;;;;;5099293;27;20046;-82
2023/03/15 06:22:53;;;;;;;0.00;0.00;;;1.20;95.20;;;;;;5116248;27;20100;-83
2023/03/15 06:25:19;;;;;;;0.00;0.00;;;1.30;95.30;;;;;;5105513;27;20047;-83
2023/03/15 06:27:45;;;;;;;0.00;0.00;;;1.20;95.20;;;;;;5134863;27;20099;-82
2023/03/15 06:30:11;;;;;;;0.00;0.00;;;1.30;95.10;;;;;;5133708;27;20428;-82
2023/03/15 06:32:37;;;;;;;0.00;0.00;;;1.30;94.90;;;;;;5116504;27;20483;-82
2023/03/15 06:35:04;;;;;;;0.00;0.00;;;1.30;94.70;;;;;;5100308;27;20058;-82
2023/03/15 06:37:30;;;;;;;0.00;0.00;;;1.30;94.40;;;;;;5136568;27;20074;-82
2023/03/15 06:39:56;;;;;;;0.00;0.00;;;1.40;94.40;;;;;;5135138;27;20039;-82
2023/03/15 06:42:22;;;;;;;0.00;0.00;;;1.40;93.70;;;;;;5116831;27;20160;-82
2023/03/15 06:44:48;;;;;;;0.00;0.00;;;1.40;93.10;;;;;;5113474;27;20720;-83
2023/03/15 06:47:13;;;;;;;0.00;0.00;;;1.40;92.30;;;;;;5135214;27;20133;-83
2023/03/15 06:49:39;;;;;;;0.00;0.00;;;1.40;92.70;;;;;;5135266;27;20043;-83
2023/03/15 06:52:06;;;;;;;0.00;0.00;;;1.40;93.00;;;;;;5117032;27;20047;-82
2023/03/15 06:54:32;;;;;;;0.00;0.00;;;1.60;94.30;;;;;;5135658;27;20499;-84
2023/03/15 06:56:58;;;;;;;0.00;0.00;;;2.00;97.10;;;;;;5135566;27;20089;-82
2023/03/15 06:59:24;;;;;;;0.00;0.00;;;2.60;97.60;;;;;;5101417;27;20187;-82
2023/03/15 07:01:50;;;;;;;0.00;0.00;;;3.10;94.40;;;;;;5118621;27;20193;-83
2023/03/15 07:04:16;;;;;;;0.00;0.00;;;3.40;91.10;;;;;;5120621;27;20070;-82
2023/03/15 07:06:42;;;;;;;0.10;0.10;;;4.00;91.60;;;;;;5139089;27;20380;-82
2023/03/15 07:09:07;;;;;;;0.00;0.00;;;4.60;82.90;;;;;;5104913;27;20087;-82
2023/03/15 07:11:33;;;;;;;0.00;0.00;;;5.10;65.70;;;;;;5139101;27;20095;-84
2023/03/15 07:13:59;;;;;;;0.00;0.00;;;5.30;51.70;;;;;;5138785;27;20134;-83
2023/03/15 07:16:25;;;;;;;0.00;0.00;;;5.30;30.90;;;;;;5104605;27;20130;-83
2023/03/15 07:18:54;;;;;;;0.00;0.00;;;5.20;21.90;;;;;;5104822;27;20050;-82
2023/03/15 07:21:20;;;;;;;0.00;0.00;;;5.10;16.70;;;;;;5105662;27;20053;-83
2023/03/15 07:23:46;;;;;;;0.00;0.00;;;5.50;28.30;;;;;;5138608;27;20089;-86
2023/03/15 07:26:11;;;;;;;0.00;0.00;;;6.10;26.70;;;;;;5104615;27;20455;-81
2023/03/15 07:28:37;;;;;;;0.00;0.00;;;7.10;1.00;;;;;;5138835;27;20049;-80
2023/03/15 07:31:04;;;;;;;0.00;0.00;;;7.80;1.00;;;;;;5121228;27;20042;-80
2023/03/15 07:33:32;;;;;;;0.00;0.00;;;8.40;1.00;;;;;;5121434;27;20054;-80
2023/03/15 07:36:02;;;;;;;0.28;0.00;;;8.50;99.90;;;;;;5138265;27;20089;-80
2023/03/15 07:38:29;;;;;;;0.08;0.00;;;8.40;99.90;;;;;;5156838;27;20053;-83
2023/03/15 07:40:55;;;;;;;0.10;0.10;;;8.00;99.90;;;;;;5138416;27;20050;-85
2023/03/15 07:43:22;;;;;;;0.03;0.00;;;7.90;1.00;;;;;;5121068;27;20051;-87
2023/03/15 07:45:48;;;;;;;0.00;0.00;;;8.10;99.90;;;;;;5121250;27;20038;-87
2023/03/15 07:48:14;;;;;;;0.00;0.00;;;8.60;99.90;;;;;;5121473;27;20057;-81
2023/03/15 07:50:40;;;;;;;0.00;0.00;;;8.90;99.90;;;;;;5156486;27;20034;-80
2023/03/15 07:53:06;;;;;;;0.10;0.10;;;8.90;1.00;;;;;;5138010;27;20047;-80
2023/03/15 07:55:33;;;;;;;0.00;0.00;;;8.60;99.90;;;;;;5156358;27;20125;-81
2023/03/15 07:57:59;;;;;;;0.00;0.00;;;8.20;99.90;;;;;;5156334;27;20058;-81
2023/03/15 08:00:25;;;;;;;0.00;0.00;;;7.90;99.90;;;;;;5137600;27;20470;-81
2023/03/15 08:02:51;;;;;;;0.00;0.00;;;7.50;99.90;;;;;;5137927;27;20042;-80
2023/03/15 08:05:20;;;;;;;0.00;0.00;;;7.20;99.90;;;;;;5120541;27;20054;-81
2023/03/15 08:07:47;;;;;;;0.00;0.00;;;7.10;99.90;;;;;;5121238;27;20058;-82
2023/03/15 08:10:13;;;;;;;0.00;0.00;;;6.90;1.00;;;;;;5120959;27;20085;-80
2023/03/15 08:12:41;;;;;;;0.00;0.00;;;6.90;1.00;;;;;;5137781;27;20046;-81
2023/03/15 08:15:11;;;;;;;0.10;0.00;;;6.80;1.00;;;;;;5121304;27;20093;-81
2023/03/15 08:17:38;;;;;;;0.00;0.00;;;6.80;1.00;;;;;;5155989;27;20042;-81
2023/03/15 08:20:05;;;;;;;0.00;0.00;;;6.90;1.00;;;;;;5137660;27;20039;-80
2023/03/15 08:22:31;;;;;;;0.10;0.10;;;6.90;1.00;;;;;;5120434;27;20046;-81
2023/03/15 08:24:57;;;;;;;0.00;0.00;;;6.90;1.00;;;;;;5121196;27;20091;-80
2023/03/15 08:27:24;;;;;;;0.00;0.00;;;6.80;1.00;;;;;;5137505;27;20046;-80
2023/03/15 08:29:50;;;;;;;0.00;0.00;;;6.90;1.00;;;;;;5136693;27;20046;-81
2023/03/15 08:32:17;;;;;;;0.00;0.00;;;7.10;1.00;;;;;;5120433;27;20394;-81
2023/03/15 08:34:44;;;;;;;1.55;0.20;;;7.30;1.00;;;;;;5120278;27;20047;-81
2023/03/15 08:37:10;;;;;;;0.00;0.00;;;7.30;99.90;;;;;;5136862;27;20042;-81
2023/03/15 08:39:39;;;;;;;0.90;0.38;;;7.30;99.90;;;;;;5120416;27;20039;-81
2023/03/15 08:42:05;;;;;;;0.00;0.00;;;7.50;99.90;;;;;;5120647;27;20042;-81
2023/03/15 08:44:31;;;;;;;1.67;0.22;;;7.60;99.90;;;;;;5120178;27;20050;-81
2023/03/15 08:46:57;;;;;;;0.00;0.00;;;7.70;99.90;;;;;;5103451;27;20054;-81
2023/03/15 08:49:24;;;;;;;0.00;0.00;;;7.90;99.90;;;;;;5120054;27;20045;-81
2023/03/15 08:51:50;;;;;;;0.55;0.28;;;8.10;99.90;;;;;;5137348;27;20072;-83
2023/03/15 08:54:16;;;;;;;0.00;0.00;;;8.30;99.90;;;;;;5103058;27;20047;-81
2023/03/15 08:56:42;;;;;;;0.00;0.00;;;8.40;99.90;;;;;;5137125;27;20053;-81
2023/03/15 08:59:08;;;;;;;0.28;0.28;;;8.50;99.90;;;;;;5119482;27;20149;-81
2023/03/15 09:01:34;;;;;;;0.00;0.00;;;8.70;1.00;;;;;;5137146;27;20512;-80
2023/03/15 09:04:01;;;;;;;0.08;0.08;;;8.80;99.90;;;;;;5136962;27;20043;-80
2023/03/15 09:06:27;;;;;;;0.35;0.35;;;8.80;99.90;;;;;;5120005;27;20043;-81
2023/03/15 09:08:54;;;;;;;9.95;0.55;;;8.80;55.50;;;;;;5137000;27;20034;-81
2023/03/15 09:11:21;;;;;;;0.00;0.00;;;9.00;1.00;;;;;;5119912;27;20039;-81
2023/03/15 09:13:47;;;;;;;0.00;0.00;;;9.30;99.90;;;;;;5137102;27;20380;-82
2023/03/15 09:16:13;;;;;;;0.00;0.00;;;9.20;1.00;;;;;;5119842;27;20046;-81
2023/03/15 09:18:43;;;;;;;0.00;0.00;;;9.60;99.90;;;;;;5103014;27;20042;-81
2023/03/15 09:21:09;;;;;;;0.45;0.43;;;9.70;1.00;;;;;;5136942;27;20051;-81
2023/03/15 09:23:34;;;;;;;0.00;0.00;;;9.60;99.90;;;;;;5136902;27;20393;-81
2023/03/15 09:26:00;;;;;;;0.00;0.00;;;9.60;99.90;;;;;;5137154;27;20055;-81
2023/03/15 09:28:26;;;;;;;0.00;0.00;;;9.60;99.90;;;;;;5136702;27;20042;-81
2023/03/15 09:30:57;;;;;;;0.00;0.00;;;10.10;99.90;;;;;;5119289;27;20498;-80
2023/03/15 09:33:22;;;;;;;0.00;0.00;;;10.50;99.90;;;;;;5137025;27;20038;-81
2023/03/15 09:35:52;;;;;;;1.55;0.52;;;10.50;63.00;;;;;;5119796;27;20406;-81
2023/03/15 09:38:18;;;;;;;21.50;1.35;;;10.40;1.00;;;;;;5119662;27;20054;-81
2023/03/15 09:40:45;;;;;;;0.00;0.00;;;10.30;99.90;;;;;;5138775;27;20054;-81
2023/03/15 09:43:16;;;;;;;0.20;0.17;;;10.20;99.90;;;;;;5141496;27;20379;-81
2023/03/15 09:46:20;;;;;;;0.00;0.00;;;10.40;99.90;;;;;;5140407;27;20055;-81
2023/03/15 09:48:51;;;;;;;0.00;0.00;;;10.80;99.90;;;;;;5140583;27;20049;-81
2023/03/15 09:51:35;;;;;;;1.60;0.35;;;10.80;99.90;;;;;;5140670;27;20050;-81
2023/03/15 09:54:52;;;;;;;0.00;0.00;;;10.90;99.90;;;;;;5140645;27;20084;-81
2023/03/15 09:57:34;;;;;;;0.00;0.00;;;10.60;1.00;;;;;;5118611;27;20050;-81
2023/03/15 10:00:05;;;;;;;2.25;0.10;;;10.80;1.00;;;;;;5140353;27;20426;-81
2023/03/15 10:02:31;;;;;;;0.00;0.00;;;10.80;99.90;;;;;;5140567;27;20038;-81
2023/03/15 10:05:15;;;;;;;0.00;0.00;;;10.80;99.90;;;;;;5139825;27;20103;-81
2023/03/15 10:07:40;;;;;;;0.00;0.00;;;11.00;99.90;;;;;;5140213;27;20047;-82
2023/03/15 10:10:23;;;;;;;0.00;0.00;;;11.10;99.90;;;;;;5140233;27;20046;-81
2023/03/15 10:13:08;;;;;;;3.20;0.80;;;11.20;99.90;;;;;;5123368;27;20050;-81
2023/03/15 10:16:12;;;;;;;0.00;0.00;;;11.30;99.90;;;;;;5140316;27;20055;-82
2023/03/15 10:18:53;;;;;;;0.00;0.00;;;11.30;99.90;;;;;;5101127;27;20055;-82
2023/03/15 10:21:37;;;;;;;0.00;0.00;;;11.40;99.90;;;;;;5139816;27;20050;-82
2023/03/15 10:24:04;;;;;;;0.00;0.00;;;11.70;99.90;;;;;;5140021;27;20050;-82
2023/03/15 10:26:35;;;;;;;0.00;0.00;;;11.70;99.90;;;;;;5139930;27;20042;-82
2023/03/15 10:29:08;;;;;;;0.00;0.00;;;11.70;99.90;;;;;;5140122;27;20057;-82
2023/03/15 10:31:38;;;;;;;0.00;0.00;;;11.70;99.90;;;;;;5158175;27;20574;-82
2023/03/15 10:34:04;;;;;;;0.32;0.17;;;11.80;99.90;;;;;;5139866;27;20390;-83
2023/03/15 10:36:29;;;;;;;0.15;0.08;;;11.90;99.90;;;;;;5105549;27;20043;-82
2023/03/15 10:38:57;;;;;;;0.00;0.00;;;11.80;99.90;;;;;;5122564;27;20051;-82
2023/03/15 10:41:38;;;;;;;0.00;0.00;;;11.80;99.90;;;;;;5157945;27;20099;-82
2023/03/15 10:44:09;;;;;;;0.10;0.10;;;11.80;99.90;;;;;;5122653;27;20510;-82
2023/03/15 10:46:35;;;;;;;0.00;0.00;;;12.00;99.90;;;;;;5139707;27;20042;-83
2023/03/15 10:49:11;;;;;;;0.00;0.00;;;11.80;99.90;;;;;;5139408;27;20363;-83
2023/03/15 10:51:47;;;;;;;0.10;0.10;;;12.00;99.90;;;;;;5138903;27;20129;-83
2023/03/15 10:54:24;;;;;;;0.20;0.10;;;12.40;99.90;;;;;;5139486;27;20088;-83
2023/03/15 10:57:16;;;;;;;0.00;0.00;;;12.70;99.90;;;;;;5139160;27;20532;-83
2023/03/15 10:59:58;;;;;;;0.00;0.00;;;12.80;99.90;;;;;;5139167;27;20082;-83
2023/03/15 11:02:25;;;;;;;0.00;0.00;;;12.40;99.90;;;;;;5122342;27;20133;-83
2023/03/15 11:05:12;;;;;;;0.00;0.00;;;12.40;99.90;;;;;;5135608;27;20066;-83
2023/03/15 11:07:56;;;;;;;0.00;0.00;;;12.50;99.90;;;;;;5135972;27;20055;-83
2023/03/15 11:10:24;;;;;;;0.00;0.00;;;12.50;99.90;;;;;;5136332;27;20425;-83
2023/03/15 11:13:07;;;;;;;0.98;0.55;;;12.90;99.90;;;;;;5119055;27;20120;-83
2023/03/15 11:15:33;;;;;;;0.52;0.38;;;13.10;99.90;;;;;;5135636;27;20046;-83
2023/03/15 11:17:58;;;;;;;0.00;0.00;;;13.20;99.90;;;;;;5135534;27;20054;-83
2023/03/15 11:20:35;;;;;;;0.00;0.00;;;12.70;99.90;;;;;;5136464;27;20047;-83
2023/03/15 11:23:16;;;;;;;0.00;0.00;;;12.40;99.90;;;;;;5136245;27;20539;-83
2023/03/15 11:25:43;;;;;;;0.00;0.00;;;12.20;99.90;;;;;;5135691;27;20478;-83
2023/03/15 11:28:18;;;;;;;0.45;0.43;;;11.70;83.50;;;;;;5135551;27;20073;-83
2023/03/15 11:30:46;;;;;;;0.00;0.00;;;11.10;86.90;;;;;;5117864;27;20054;-83
2023/03/15 11:33:26;;;;;;;0.55;0.45;;;11.00;99.00;;;;;;5135509;27;20066;-83
2023/03/15 11:35:53;;;;;;;0.00;0.00;;;11.00;96.30;;;;;;5135638;27;20158;-83
2023/03/15 11:38:36;;;;;;;0.00;0.00;;;10.80;99.90;;;;;;5117691;27;20062;-83
2023/03/15 11:41:19;;;;;;;0.10;0.00;;;10.50;98.20;;;;;;5118017;27;20097;-83
2023/03/15 11:44:03;;;;;;;1.08;0.47;;;10.20;99.90;;;;;;5134975;27;20395;-83
2023/03/15 11:46:35;;;;;;;0.00;0.00;;;10.50;99.90;;;;;;5117875;27;20082;-83
2023/03/15 11:49:13;;;;;;;0.00;0.00;;;10.60;99.90;;;;;;5117779;27;20039;-83
2023/03/15 11:51:39;;;;;;;0.00;0.00;;;10.60;99.90;;;;;;5135118;27;20555;-83
2023/03/15 11:54:11;;;;;;;0.00;0.00;;;10.50;99.60;;;;;;5117571;27;20508;-83
2023/03/15 11:56:45;;;;;;;0.00;0.00;;;10.60;99.90;;;;;;5134696;27;20039;-83
2023/03/15 11:59:16;;;;;;;0.00;0.00;;;10.60;99.90;;;;;;5133999;27;20039;-83
2023/03/15 12:01:50;;;;;;;0.30;0.20;;;10.60;99.90;;;;;;5134664;27;20474;-84
2023/03/15 12:04:31;;;;;;;0.00;0.00;;;10.50;99.90;;;;;;5116994;27;20058;-82
2023/03/15 12:07:02;;;;;;;0.00;0.00;;;10.50;99.90;;;;;;5137699;27;20051;-83
2023/03/15 12:09:30;;;;;;;0.00;0.00;;;10.30;99.90;;;;;;5137708;27;20475;-83
2023/03/15 12:12:25;;;;;;;0.20;0.20;;;10.10;99.90;;;;;;5137933;27;20441;-83
2023/03/15 12:15:26;;;;;;;0.00;0.00;;;10.30;99.90;;;;;;5128473;27;20111;-83
2023/03/15 12:18:05;;;;;;;0.00;0.00;;;10.80;99.90;;;;;;5120324;27;20486;-83
2023/03/15 12:20:37;;;;;;;0.00;0.00;;;10.90;99.90;;;;;;5137877;27;20133;-83
2023/03/15 12:23:20;;;;;;;0.00;0.00;;;11.00;99.90;;;;;;5137624;27;20432;-83
2023/03/15 12:26:00;;;;;;;0.00;0.00;;;11.00;99.90;;;;;;5137475;27;20039;-89
2023/03/15 12:28:33;;;;;;;0.00;0.00;;;11.10;99.50;;;;;;5120769;27;20046;-87
2023/03/15 12:31:01;;;;;;;0.00;0.00;;;11.50;99.90;;;;;;5119916;27;20055;-88
2023/03/15 12:33:29;;;;;;;0.00;0.00;;;11.40;99.90;;;;;;5120180;27;20050;-84
2023/03/15 12:36:10;;;;;;;0.00;0.00;;;11.30;89.20;;;;;;5137405;27;20054;-84
2023/03/15 12:38:40;;;;;;;0.00;0.00;;;11.10;90.80;;;;;;5120304;27;20053;-84
2023/03/15 12:41:40;;;;;;;0.00;0.00;;;11.10;90.00;;;;;;5120519;27;20102;-84
2023/03/15 12:44:23;;;;;;;0.55;0.55;;;11.00;85.30;;;;;;5137429;27;20416;-84
2023/03/15 12:46:48;;;;;;;0.00;0.00;;;11.30;90.90;;;;;;5137694;27;20453;-84
2023/03/15 12:49:23;;;;;;;0.00;0.00;;;11.90;88.50;;;;;;5137410;27;20046;-84
2023/03/15 12:52:01;;;;;;;0.00;0.00;;;12.30;77.40;;;;;;5120244;27;20055;-83
2023/03/15 12:54:54;;;;;;;0.00;0.00;;;12.40;90.00;;;;;;5138260;27;20352;-83
2023/03/15 12:57:27;;;;;;;0.00;0.00;;;12.30;74.60;;;;;;5120028;27;20082;-83
2023/03/15 12:59:54;;;;;;;0.00;0.00;;;12.30;84.30;;;;;;5154960;27;20034;-84
2023/03/15 13:02:30;;;;;;;0.00;0.00;;;12.40;66.20;;;;;;5119782;27;20051;-83
2023/03/15 13:05:12;;;;;;;0.00;0.00;;;12.40;45.20;;;;;;5137223;27;20077;-83
2023/03/15 13:07:47;;;;;;;0.50;0.30;;;12.40;53.80;;;;;;5137154;27;20069;-83